createdAt,value
2017-12-28T00:00:43.805Z,2.00
2017-12-28T00:03:11.891Z,1.93
2017-12-28T00:05:40.677Z,1.97
2017-12-28T00:08:09.273Z,1.73
2017-12-28T00:10:36.947Z,1.50
2017-12-28T00:13:04.621Z,1.70
2017-12-28T00:15:32.268Z,2.00
2017-12-28T00:18:00.420Z,1.37
2017-12-28T00:20:28.091Z,1.57
2017-12-28T00:22:55.802Z,1.97
2017-12-28T00:25:23.731Z,1.50
2017-12-28T00:27:52.283Z,1.13
2017-12-28T00:30:20.951Z,1.50
2017-12-28T00:32:48.618Z,1.23
2017-12-28T00:35:19.003Z,1.20
2017-12-28T00:37:47.801Z,1.47
2017-12-28T00:40:15.516Z,1.60
2017-12-28T00:42:44.024Z,1.77
2017-12-28T00:45:11.748Z,1.97
2017-12-28T00:47:39.678Z,1.20
2017-12-28T00:50:07.559Z,1.67
2017-12-28T00:52:35.504Z,1.37
2017-12-28T00:55:03.204Z,1.60
2017-12-28T00:57:30.932Z,2.03
2017-12-28T00:59:58.622Z,1.83
2017-12-28T01:02:26.246Z,2.10
2017-12-28T01:04:54.753Z,1.60
2017-12-28T01:07:22.450Z,1.60
2017-12-28T01:09:50.123Z,2.00
2017-12-28T01:12:17.800Z,1.97
2017-12-28T01:14:45.710Z,1.87
2017-12-28T01:17:13.707Z,2.00
2017-12-28T01:19:41.748Z,1.83
2017-12-28T01:22:10.553Z,1.93
2017-12-28T01:24:38.262Z,1.87
2017-12-28T01:27:08.922Z,1.90
2017-12-28T01:29:36.908Z,1.40
2017-12-28T01:32:04.901Z,2.10
2017-12-28T01:34:32.627Z,2.10
2017-12-28T01:37:01.138Z,1.80
2017-12-28T01:39:28.847Z,2.33
2017-12-28T01:41:56.664Z,1.67
2017-12-28T01:44:24.737Z,2.23
2017-12-28T01:46:53.282Z,1.90
2017-12-28T01:49:21.428Z,2.00
2017-12-28T01:51:50.187Z,2.40
2017-12-28T01:54:19.118Z,2.17
2017-12-28T01:56:46.773Z,2.10
2017-12-28T01:59:14.488Z,2.60
2017-12-28T02:01:43.299Z,2.40
2017-12-28T02:04:11.823Z,2.10
2017-12-28T02:06:39.508Z,2.20
2017-12-28T02:09:07.228Z,2.60
2017-12-28T02:11:35.017Z,2.03
2017-12-28T02:14:02.716Z,2.60
2017-12-28T02:16:31.230Z,2.20
2017-12-28T02:19:00.027Z,1.90
2017-12-28T02:21:28.201Z,2.10
2017-12-28T02:23:56.686Z,2.83
2017-12-28T02:26:24.762Z,2.57
2017-12-28T02:28:52.493Z,2.83
2017-12-28T02:31:20.907Z,3.13
2017-12-28T02:33:48.969Z,2.90
2017-12-28T02:36:16.937Z,2.30
2017-12-28T02:38:44.732Z,2.20
2017-12-28T02:41:12.393Z,2.70
2017-12-28T02:43:40.109Z,2.33
2017-12-28T02:46:08.729Z,2.90
2017-12-28T02:48:36.704Z,3.20
2017-12-28T02:51:04.670Z,3.20
2017-12-28T02:53:33.192Z,2.60
2017-12-28T02:56:00.855Z,2.80
2017-12-28T02:58:28.779Z,3.37
2017-12-28T03:00:56.866Z,2.00
2017-12-28T03:03:25.358Z,2.40
2017-12-28T03:05:53.056Z,2.17
2017-12-28T03:08:20.897Z,2.53
2017-12-28T03:10:48.942Z,2.90
2017-12-28T03:13:16.783Z,2.60
2017-12-28T03:15:45.347Z,2.10
2017-12-28T03:18:13.172Z,2.20
2017-12-28T03:20:42.061Z,3.07
2017-12-28T03:23:09.811Z,2.73
2017-12-28T03:25:37.794Z,3.03
2017-12-28T03:28:05.666Z,2.40
2017-12-28T03:30:34.349Z,2.57
2017-12-28T03:33:02.016Z,2.70
2017-12-28T03:35:29.666Z,2.50
2017-12-28T03:37:58.371Z,2.90
2017-12-28T03:40:26.954Z,2.20
2017-12-28T03:42:54.658Z,2.70
2017-12-28T03:45:22.584Z,2.50
2017-12-28T03:47:51.171Z,3.30
2017-12-28T03:50:18.887Z,3.03
2017-12-28T03:52:46.525Z,2.77
2017-12-28T03:55:14.368Z,3.70
2017-12-28T03:57:42.042Z,2.73
2017-12-28T04:00:09.942Z,2.53
2017-12-28T04:02:37.995Z,2.73
2017-12-28T04:05:06.102Z,2.70
2017-12-28T04:07:34.123Z,3.00
2017-12-28T04:10:02.905Z,3.10
2017-12-28T04:12:31.831Z,2.93
2017-12-28T04:14:59.772Z,3.07
2017-12-28T04:17:28.255Z,3.10
2017-12-28T04:19:56.021Z,3.57
2017-12-28T04:22:24.487Z,3.67
2017-12-28T04:24:52.877Z,3.30
2017-12-28T04:27:21.295Z,3.20
2017-12-28T04:29:49.074Z,3.10
2017-12-28T04:32:16.783Z,3.03
2017-12-28T04:34:45.226Z,3.07
2017-12-28T04:37:13.173Z,3.60
2017-12-28T04:39:40.833Z,3.80
2017-12-28T04:42:08.752Z,3.80
2017-12-28T04:44:36.856Z,3.57
2017-12-28T04:47:04.739Z,3.10
2017-12-28T04:49:32.396Z,3.90
2017-12-28T04:52:00.071Z,3.60
2017-12-28T04:54:27.701Z,2.97
2017-12-28T04:56:56.152Z,3.97
2017-12-28T04:59:23.868Z,3.30
2017-12-28T05:01:51.539Z,3.60
2017-12-28T05:04:19.531Z,3.37
2017-12-28T05:06:47.167Z,3.63
2017-12-28T05:09:14.795Z,3.60
2017-12-28T05:11:42.614Z,3.30
2017-12-28T05:14:11.153Z,3.40
2017-12-28T05:16:39.616Z,4.30
2017-12-28T05:19:07.319Z,4.40
2017-12-28T05:21:35.920Z,4.03
2017-12-28T05:24:04.435Z,3.87
2017-12-28T05:26:32.060Z,4.00
2017-12-28T05:28:59.749Z,3.03
2017-12-28T05:31:27.381Z,3.47
2017-12-28T05:33:55.046Z,3.73
2017-12-28T05:36:23.447Z,3.50
2017-12-28T05:38:51.134Z,3.77
2017-12-28T05:41:18.798Z,4.10
2017-12-28T05:43:46.448Z,3.40
2017-12-28T05:46:14.102Z,3.77
2017-12-28T05:48:41.830Z,3.13
2017-12-28T05:51:10.537Z,3.23
2017-12-28T05:53:39.336Z,3.50
2017-12-28T05:56:06.969Z,3.30
2017-12-28T05:58:35.701Z,2.83
2017-12-28T06:01:04.781Z,3.20
2017-12-28T06:03:33.281Z,3.00
2017-12-28T06:06:00.913Z,2.77
2017-12-28T06:08:29.350Z,2.90
2017-12-28T06:10:56.999Z,2.80
2017-12-28T06:13:24.941Z,3.37
2017-12-28T06:15:53.434Z,2.90
2017-12-28T06:18:21.038Z,3.10
2017-12-28T06:20:48.728Z,2.73
2017-12-28T06:23:17.444Z,2.43
2017-12-28T06:25:46.020Z,2.60
2017-12-28T06:28:14.919Z,2.87
2017-12-28T06:30:43.418Z,3.30
2017-12-28T06:33:11.048Z,2.83
2017-12-28T06:35:39.465Z,2.90
2017-12-28T06:38:07.119Z,2.73
2017-12-28T06:40:34.877Z,2.50
2017-12-28T06:43:02.741Z,2.53
2017-12-28T06:45:30.385Z,2.10
2017-12-28T06:47:59.556Z,2.77
2017-12-28T06:50:27.223Z,1.97
2017-12-28T06:52:55.169Z,2.07
2017-12-28T06:55:23.022Z,2.27
2017-12-28T06:57:50.978Z,2.77
2017-12-28T07:00:18.630Z,2.60
2017-12-28T07:02:47.227Z,2.83
2017-12-28T07:05:15.677Z,2.87
2017-12-28T07:07:43.688Z,2.53
2017-12-28T07:10:11.761Z,2.10
2017-12-28T07:12:40.279Z,2.50
2017-12-28T07:15:07.949Z,2.80
2017-12-28T07:17:35.757Z,2.80
2017-12-28T07:20:04.166Z,3.50
2017-12-28T07:22:32.044Z,2.60
2017-12-28T07:24:59.731Z,2.57
2017-12-28T07:27:27.393Z,2.20
2017-12-28T07:29:55.425Z,2.30
2017-12-28T07:32:24.137Z,2.10
2017-12-28T07:34:51.805Z,2.63
2017-12-28T07:37:19.682Z,2.53
2017-12-28T07:39:47.322Z,2.50
2017-12-28T07:42:15.101Z,2.90
2017-12-28T07:44:42.772Z,2.70
2017-12-28T07:47:10.392Z,2.57
2017-12-28T07:49:38.767Z,2.30
2017-12-28T07:52:07.180Z,2.80
2017-12-28T07:54:34.827Z,2.70
2017-12-28T07:57:02.897Z,2.00
2017-12-28T07:59:31.403Z,2.03
2017-12-28T08:01:59.356Z,2.10
2017-12-28T08:04:28.086Z,2.30
2017-12-28T08:06:56.113Z,3.20
2017-12-28T08:09:24.594Z,2.30
2017-12-28T08:11:52.242Z,2.80
2017-12-28T08:14:21.056Z,2.93
2017-12-28T08:16:49.024Z,2.90
2017-12-28T08:19:17.024Z,3.00
2017-12-28T08:21:44.659Z,3.03
2017-12-28T08:24:12.279Z,2.73
2017-12-28T08:26:40.400Z,3.07
2017-12-28T08:29:08.094Z,2.77
2017-12-28T08:31:35.746Z,2.67
2017-12-28T08:34:03.700Z,2.60
2017-12-28T08:36:31.352Z,2.50
2017-12-28T08:39:00.043Z,2.93
2017-12-28T08:41:27.675Z,2.80
2017-12-28T08:43:55.303Z,3.70
2017-12-28T08:46:22.962Z,3.27
2017-12-28T08:48:50.627Z,3.33
2017-12-28T08:51:18.261Z,3.10
2017-12-28T08:53:45.886Z,3.10
2017-12-28T08:56:14.005Z,2.70
2017-12-28T08:58:42.478Z,3.13
2017-12-28T09:01:10.112Z,3.60
2017-12-28T09:03:38.013Z,3.63
2017-12-28T09:06:05.638Z,3.43
2017-12-28T09:08:33.267Z,3.30
2017-12-28T09:11:01.218Z,3.13
2017-12-28T09:13:30.104Z,3.43
2017-12-28T09:15:59.002Z,3.37
2017-12-28T09:18:26.628Z,3.57
2017-12-28T09:20:54.240Z,3.23
2017-12-28T09:23:21.874Z,4.30
2017-12-28T09:25:49.661Z,5.50
2017-12-28T09:28:17.622Z,6.30
2017-12-28T09:30:46.118Z,6.17
2017-12-28T09:33:13.761Z,4.83
2017-12-28T09:35:42.660Z,4.57
2017-12-28T09:38:10.441Z,4.60
2017-12-28T09:40:38.398Z,4.83
2017-12-28T09:43:06.046Z,4.70
2017-12-28T09:45:34.648Z,3.73
2017-12-28T09:48:03.278Z,4.43
2017-12-28T09:50:30.960Z,4.63
2017-12-28T09:52:58.647Z,4.20
2017-12-28T09:55:27.065Z,4.43
2017-12-28T09:57:54.680Z,5.67
2017-12-28T10:00:22.473Z,6.20
2017-12-28T10:02:50.981Z,6.60
2017-12-28T10:05:18.614Z,5.00
2017-12-28T10:07:46.224Z,4.83
2017-12-28T10:10:13.894Z,4.47
2017-12-28T10:12:41.925Z,4.57
2017-12-28T10:15:10.419Z,4.63
2017-12-28T10:17:38.478Z,5.20
2017-12-28T10:20:07.085Z,4.67
2017-12-28T10:22:34.828Z,4.87
2017-12-28T10:25:03.617Z,4.23
2017-12-28T10:27:31.271Z,4.60
2017-12-28T10:30:00.078Z,3.97
2017-12-28T10:32:27.768Z,3.90
2017-12-28T10:34:55.702Z,3.90
2017-12-28T10:37:23.349Z,4.47
2017-12-28T10:39:51.839Z,3.73
2017-12-28T10:42:20.231Z,4.00
2017-12-28T10:44:48.208Z,3.53
2017-12-28T10:47:16.002Z,3.37
2017-12-28T10:49:43.676Z,3.73
2017-12-28T10:52:11.493Z,3.50
2017-12-28T10:54:40.087Z,3.80
2017-12-28T10:57:08.875Z,4.33
2017-12-28T10:59:36.492Z,4.60
2017-12-28T11:02:04.156Z,3.43
2017-12-28T11:04:32.180Z,3.50
2017-12-28T11:07:00.650Z,4.50
2017-12-28T11:09:29.041Z,3.83
2017-12-28T11:11:56.917Z,3.63
2017-12-28T11:14:24.621Z,3.80
2017-12-28T11:16:53.016Z,3.40
2017-12-28T11:19:20.930Z,3.40
2017-12-28T11:21:48.831Z,3.30
2017-12-28T11:24:16.764Z,3.77
2017-12-28T11:26:45.233Z,3.03
2017-12-28T11:29:13.651Z,3.23
2017-12-28T11:31:41.265Z,2.90
2017-12-28T11:34:09.176Z,3.33
2017-12-28T11:36:36.812Z,3.60
2017-12-28T11:39:05.219Z,3.13
2017-12-28T11:41:33.202Z,2.83
2017-12-28T11:44:01.049Z,3.80
2017-12-28T11:46:29.523Z,3.10
2017-12-28T11:48:57.602Z,3.00
2017-12-28T11:51:25.243Z,3.00
2017-12-28T11:53:54.775Z,3.10
2017-12-28T11:56:22.749Z,3.27
2017-12-28T11:58:51.636Z,4.43
2017-12-28T12:01:20.106Z,3.77
2017-12-28T12:03:48.512Z,3.37
2017-12-28T12:06:16.234Z,3.20
2017-12-28T12:08:44.235Z,3.43
2017-12-28T12:11:12.743Z,3.80
2017-12-28T12:13:40.692Z,3.70
2017-12-28T12:16:09.476Z,2.90
2017-12-28T12:18:38.172Z,4.10
2017-12-28T12:21:07.854Z,4.57
2017-12-28T12:23:36.774Z,3.73
2017-12-28T12:26:04.429Z,3.57
2017-12-28T12:28:33.125Z,3.17
2017-12-28T12:31:00.767Z,3.53
2017-12-28T12:33:29.187Z,4.90
2017-12-28T12:35:57.898Z,3.80
2017-12-28T12:38:25.667Z,4.20
2017-12-28T12:40:53.455Z,3.37
2017-12-28T12:43:21.386Z,3.47
2017-12-28T12:45:49.040Z,5.40
2017-12-28T12:48:16.995Z,7.07
2017-12-28T12:50:45.530Z,5.13
2017-12-28T12:53:13.353Z,4.03
2017-12-28T12:55:41.335Z,3.43
2017-12-28T12:58:09.813Z,3.73
2017-12-28T13:00:37.564Z,5.07
2017-12-28T13:03:05.952Z,3.93
2017-12-28T13:05:34.021Z,4.83
2017-12-28T13:08:01.776Z,4.43
2017-12-28T13:10:29.769Z,4.50
2017-12-28T13:12:57.426Z,5.83
2017-12-28T13:15:25.295Z,5.93
2017-12-28T13:17:52.898Z,5.83
2017-12-28T13:20:21.497Z,5.63
2017-12-28T13:22:49.111Z,5.17
2017-12-28T13:25:16.724Z,4.23
2017-12-28T13:27:44.434Z,5.27
2017-12-28T13:30:12.324Z,5.20
2017-12-28T13:32:40.923Z,4.73
2017-12-28T13:35:08.858Z,4.53
2017-12-28T13:37:38.704Z,6.27
2017-12-28T13:40:07.191Z,7.53
2017-12-28T13:42:35.245Z,7.00
2017-12-28T13:45:03.230Z,5.23
2017-12-28T13:47:30.945Z,3.87
2017-12-28T13:49:59.651Z,4.07
2017-12-28T13:52:27.301Z,3.10
2017-12-28T13:54:56.108Z,2.70
2017-12-28T13:57:23.972Z,2.23
2017-12-28T13:59:52.464Z,2.70
2017-12-28T14:02:20.161Z,1.97
2017-12-28T14:04:48.296Z,2.30
2017-12-28T14:07:17.090Z,2.03
2017-12-28T14:09:45.599Z,2.23
2017-12-28T14:12:14.066Z,2.67
2017-12-28T14:14:41.933Z,2.40
2017-12-28T14:17:10.414Z,2.27
2017-12-28T14:19:38.033Z,4.93
2017-12-28T14:22:05.674Z,4.83
2017-12-28T14:24:33.324Z,5.67
2017-12-28T14:27:00.991Z,6.23
2017-12-28T14:29:28.633Z,5.20
2017-12-28T14:31:56.348Z,4.63
2017-12-28T14:34:24.082Z,5.30
2017-12-28T14:36:51.828Z,5.30
2017-12-28T14:39:20.322Z,5.20
2017-12-28T14:41:48.376Z,4.70
2017-12-28T14:44:17.271Z,4.90
2017-12-28T14:46:45.800Z,4.87
2017-12-28T14:49:13.726Z,4.73
2017-12-28T14:51:41.424Z,4.83
2017-12-28T14:54:09.215Z,4.97
2017-12-28T14:56:36.929Z,4.87
2017-12-28T14:59:05.810Z,5.27
2017-12-28T15:01:34.524Z,4.40
2017-12-28T15:04:02.215Z,5.10
2017-12-28T15:06:30.754Z,4.27
2017-12-28T15:08:58.385Z,4.97
2017-12-28T15:11:27.098Z,3.73
2017-12-28T15:13:54.965Z,4.37
2017-12-28T15:16:22.617Z,3.90
2017-12-28T15:18:51.045Z,3.93
2017-12-28T15:21:18.707Z,4.80
2017-12-28T15:23:46.362Z,4.30
2017-12-28T15:26:14.592Z,4.47
2017-12-28T15:28:42.310Z,4.57
2017-12-28T15:31:10.464Z,4.30
2017-12-28T15:33:38.114Z,4.73
2017-12-28T15:36:06.563Z,4.70
2017-12-28T15:38:34.212Z,4.23
2017-12-28T15:41:01.833Z,4.53
2017-12-28T15:43:29.912Z,3.60
2017-12-28T15:45:58.794Z,4.13
2017-12-28T15:48:27.325Z,4.33
2017-12-28T15:50:55.251Z,4.53
2017-12-28T15:53:23.733Z,4.77
2017-12-28T15:55:51.382Z,4.00
2017-12-28T15:58:19.806Z,4.40
2017-12-28T16:00:47.463Z,4.40
2017-12-28T16:03:15.101Z,3.83
2017-12-28T16:05:42.915Z,3.80
2017-12-28T16:08:10.563Z,4.00
2017-12-28T16:10:38.223Z,3.97
2017-12-28T16:13:06.040Z,4.20
2017-12-28T16:15:33.734Z,3.40
2017-12-28T16:18:01.478Z,3.73
2017-12-28T16:20:29.899Z,4.40
2017-12-28T16:22:57.543Z,3.63
2017-12-28T16:25:25.180Z,3.03
2017-12-28T16:27:53.660Z,3.43
2017-12-28T16:30:22.376Z,2.87
2017-12-28T16:32:51.167Z,3.07
2017-12-28T16:35:19.242Z,2.97
2017-12-28T16:37:47.728Z,4.17
2017-12-28T16:40:15.412Z,2.60
2017-12-28T16:42:43.036Z,2.87
2017-12-28T16:45:11.451Z,3.10
2017-12-28T16:47:39.114Z,2.60
2017-12-28T16:50:06.819Z,3.43
2017-12-28T16:52:34.456Z,2.97
2017-12-28T16:55:02.494Z,2.50
2017-12-28T16:57:30.466Z,2.73
2017-12-28T16:59:59.503Z,3.33
2017-12-28T17:02:27.280Z,3.00
2017-12-28T17:04:54.964Z,3.13
2017-12-28T17:07:23.786Z,2.27
2017-12-28T17:09:51.486Z,3.17
2017-12-28T17:12:19.231Z,2.53
2017-12-28T17:14:48.005Z,2.70
2017-12-28T17:17:15.630Z,3.33
2017-12-28T17:19:43.319Z,2.80
2017-12-28T17:22:11.693Z,2.93
2017-12-28T17:24:40.400Z,3.03
2017-12-28T17:27:08.879Z,2.67
2017-12-28T17:29:36.512Z,2.70
2017-12-28T17:32:04.250Z,2.50
2017-12-28T17:34:31.916Z,2.83
2017-12-28T17:36:59.848Z,2.33
2017-12-28T17:39:27.472Z,2.40
2017-12-28T17:41:55.481Z,2.90
2017-12-28T17:44:23.974Z,3.53
2017-12-28T17:46:51.939Z,3.77
2017-12-28T17:49:19.688Z,2.90
2017-12-28T17:51:48.138Z,2.63
2017-12-28T17:54:15.771Z,2.80
2017-12-28T17:56:43.531Z,2.47
2017-12-28T17:59:11.403Z,3.17
2017-12-28T18:01:39.059Z,2.60
2017-12-28T18:04:06.854Z,2.90
2017-12-28T18:06:35.291Z,2.40
2017-12-28T18:09:02.972Z,2.40
2017-12-28T18:11:30.854Z,3.10
2017-12-28T18:13:59.344Z,2.83
2017-12-28T18:16:27.130Z,2.50
2017-12-28T18:18:54.943Z,2.73
2017-12-28T18:21:22.613Z,2.33
2017-12-28T18:23:50.287Z,3.13
2017-12-28T18:26:17.970Z,2.90
2017-12-28T18:28:45.642Z,2.73
2017-12-28T18:31:13.333Z,2.60
2017-12-28T18:33:41.241Z,2.70
2017-12-28T18:36:10.020Z,2.73
2017-12-28T18:38:38.510Z,2.27
2017-12-28T18:41:06.168Z,2.40
2017-12-28T18:43:33.814Z,2.27
2017-12-28T18:46:02.435Z,2.43
2017-12-28T18:48:30.503Z,2.80
2017-12-28T18:50:59.082Z,2.20
2017-12-28T18:53:27.550Z,2.73
2017-12-28T18:55:55.940Z,2.10
2017-12-28T18:58:23.612Z,2.07
2017-12-28T19:00:51.589Z,2.50
2017-12-28T19:03:20.075Z,2.63
2017-12-28T19:05:47.748Z,2.50
2017-12-28T19:08:15.387Z,2.13
2017-12-28T19:10:43.094Z,2.47
2017-12-28T19:13:11.047Z,2.30
2017-12-28T19:15:38.824Z,2.43
2017-12-28T19:18:06.558Z,2.80
2017-12-28T19:20:35.071Z,2.50
2017-12-28T19:23:02.687Z,2.83
2017-12-28T19:25:30.362Z,2.40
2017-12-28T19:27:58.041Z,2.03
2017-12-28T19:30:25.742Z,2.30
2017-12-28T19:32:53.773Z,2.80
2017-12-28T19:35:22.330Z,1.97
2017-12-28T19:37:50.770Z,2.70
2017-12-28T19:40:18.554Z,2.60
2017-12-28T19:42:46.199Z,2.37
2017-12-28T19:45:13.931Z,2.63
2017-12-28T19:47:42.516Z,2.10
2017-12-28T19:50:10.287Z,2.60
2017-12-28T19:52:37.970Z,2.30
2017-12-28T19:55:05.654Z,2.33
2017-12-28T19:57:33.418Z,2.10
2017-12-28T20:00:01.245Z,2.00
2017-12-28T20:02:29.774Z,2.63
2017-12-28T20:04:57.456Z,2.10
2017-12-28T20:07:25.141Z,2.43
2017-12-28T20:09:53.580Z,2.80
2017-12-28T20:12:21.240Z,2.33
2017-12-28T20:14:48.936Z,2.27
2017-12-28T20:17:17.345Z,2.33
2017-12-28T20:19:45.012Z,2.30
2017-12-28T20:22:12.681Z,2.53
2017-12-28T20:24:40.544Z,2.43
2017-12-28T20:27:08.200Z,2.40
2017-12-28T20:29:35.883Z,2.30
2017-12-28T20:32:03.839Z,2.10
2017-12-28T20:34:32.424Z,2.40
2017-12-28T20:37:00.089Z,2.10
2017-12-28T20:39:27.761Z,2.03
2017-12-28T20:41:55.485Z,2.30
2017-12-28T20:44:23.135Z,1.93
2017-12-28T20:46:50.781Z,2.23
2017-12-28T20:49:18.749Z,2.47
2017-12-28T20:51:46.504Z,2.40
2017-12-28T20:54:14.132Z,1.97
2017-12-28T20:56:42.563Z,1.80
2017-12-28T20:59:10.193Z,2.00
2017-12-28T21:01:37.845Z,1.80
2017-12-28T21:04:06.435Z,2.27
2017-12-28T21:06:35.227Z,2.40
2017-12-28T21:09:03.745Z,1.97
2017-12-28T21:11:31.534Z,2.20
2017-12-28T21:13:59.349Z,2.13
2017-12-28T21:16:27.015Z,2.30
2017-12-28T21:18:55.699Z,1.90
2017-12-28T21:21:23.404Z,2.53
2017-12-28T21:23:51.052Z,2.33
2017-12-28T21:26:18.723Z,2.77
2017-12-28T21:28:46.764Z,2.13
2017-12-28T21:31:15.254Z,2.47
2017-12-28T21:33:43.118Z,1.83
2017-12-28T21:36:10.795Z,2.63
2017-12-28T21:38:38.485Z,2.53
2017-12-28T21:41:06.135Z,3.10
2017-12-28T21:43:33.814Z,3.90
2017-12-28T21:46:01.502Z,2.47
2017-12-28T21:48:29.936Z,2.20
2017-12-28T21:50:57.651Z,2.40
2017-12-28T21:53:25.284Z,2.67
2017-12-28T21:55:52.967Z,2.60
2017-12-28T21:58:20.645Z,3.07
2017-12-28T22:00:48.367Z,3.40
2017-12-28T22:03:16.109Z,3.37
2017-12-28T22:05:43.789Z,3.73
2017-12-28T22:08:11.669Z,3.77
2017-12-28T22:10:39.612Z,3.00
2017-12-28T22:13:07.320Z,3.87
2017-12-28T22:15:34.951Z,3.90
2017-12-28T22:18:02.592Z,3.50
2017-12-28T22:20:30.998Z,3.13
2017-12-28T22:22:59.062Z,2.83
2017-12-28T22:25:26.763Z,3.80
2017-12-28T22:27:54.482Z,3.67
2017-12-28T22:30:22.179Z,3.90
2017-12-28T22:32:50.222Z,4.23
2017-12-28T22:35:17.994Z,4.60
2017-12-28T22:37:45.769Z,4.17
2017-12-28T22:40:13.462Z,4.13
2017-12-28T22:42:41.141Z,4.60
2017-12-28T22:45:08.992Z,4.50
2017-12-28T22:47:45.644Z,4.97
2017-12-28T22:50:13.319Z,4.63
2017-12-28T22:52:41.268Z,5.77
2017-12-28T22:55:09.039Z,5.07
2017-12-28T22:57:37.714Z,5.30
2017-12-28T23:00:05.376Z,5.90
2017-12-28T23:02:33.017Z,5.20
2017-12-28T23:05:01.392Z,5.73
2017-12-28T23:07:29.117Z,6.03
2017-12-28T23:09:56.895Z,6.10
2017-12-28T23:12:24.721Z,7.60
2017-12-28T23:14:52.392Z,7.30
2017-12-28T23:17:20.186Z,8.10
2017-12-28T23:19:47.806Z,7.97
2017-12-28T23:22:16.210Z,7.73
2017-12-28T23:24:43.856Z,7.23
2017-12-28T23:27:11.494Z,8.23
2017-12-28T23:29:39.142Z,7.27
2017-12-28T23:32:06.843Z,6.93
2017-12-28T23:34:34.507Z,7.13
2017-12-28T23:37:02.381Z,6.67
2017-12-28T23:39:30.853Z,7.53
2017-12-28T23:42:00.132Z,6.80
2017-12-28T23:44:27.744Z,5.57
2017-12-28T23:46:55.499Z,5.60
2017-12-28T23:49:23.265Z,5.60
2017-12-28T23:51:50.943Z,6.20
2017-12-28T23:54:19.641Z,4.63
2017-12-28T23:56:47.593Z,5.10
2017-12-28T23:59:16.136Z,5.00
